Time;durP1;ratioP1;P1;durP2;ratioP2;P2;SDS_P1;SDS_P2;PMS_P1;PMS_P2;Temp;Humidity;BMP_temperature;BMP_pressure;BME280_temperature;BME280_humidity;BME280_pressure;Samples;Min_cycle;Max_cycle;Signal;HPM_P1;HPM_P2
2023/04/08 00:06:15;;;;;;;1999.90;999.90;;;8.60;99.90;;;;;;6635448;89;20247;-74
2023/04/08 00:16:16;;;;;;;1999.90;999.90;;;8.60;99.90;;;;;;6632895;88;20263;-74
2023/04/08 00:26:16;;;;;;;1999.90;999.90;;;8.50;99.90;;;;;;6664992;88;20211;-75
2023/04/08 00:36:18;;;;;;;1999.90;999.90;;;8.60;99.90;;;;;;6658878;88;20233;-74
2023/04/08 00:46:18;;;;;;;1999.90;999.90;;;8.50;99.90;;;;;;6645768;88;20325;-74
2023/04/08 00:56:20;;;;;;;1999.90;999.90;;;8.50;99.90;;;;;;6653616;88;20695;-74
2023/04/08 01:06:41;;;;;;;1999.90;999.90;;;8.50;99.90;;;;;;6672391;88;20185;-75
2023/04/08 01:16:44;;;;;;;1999.90;999.90;;;8.50;99.90;;;;;;6657785;88;20617;-74
2023/04/08 01:26:44;;;;;;;1999.90;999.90;;;8.50;99.90;;;;;;6662755;88;20731;-74
2023/04/08 01:36:46;;;;;;;1999.90;999.90;;;8.50;99.90;;;;;;6648023;88;20411;-74
2023/04/08 01:46:48;;;;;;;1999.90;999.90;;;8.40;99.90;;;;;;6650289;88;20266;-74
2023/04/08 01:56:51;;;;;;;1999.90;999.90;;;8.30;99.90;;;;;;6644108;88;20213;-74
2023/04/08 02:06:51;;;;;;;1999.90;999.90;;;8.30;99.90;;;;;;6630447;89;20213;-75
2023/04/08 02:16:54;;;;;;;1999.90;999.90;;;8.20;99.90;;;;;;6638028;78;20628;-78
2023/04/08 02:26:56;;;;;;;1999.90;999.90;;;8.10;99.90;;;;;;6659957;88;20709;-78
2023/04/08 02:36:58;;;;;;;1999.90;999.90;;;7.90;99.90;;;;;;6670648;88;20662;-76
2023/04/08 02:46:58;;;;;;;1999.90;999.90;;;7.80;99.90;;;;;;6663474;88;20273;-77
2023/04/08 02:56:59;;;;;;;1999.90;999.90;;;7.80;99.90;;;;;;6633381;88;20190;-77
2023/04/08 03:06:59;;;;;;;1999.90;999.90;;;7.80;99.90;;;;;;6635171;88;20390;-77
2023/04/08 03:17:00;;;;;;;1999.90;999.90;;;7.80;99.90;;;;;;6651467;88;20213;-77
2023/04/08 03:27:00;;;;;;;1999.90;999.90;;;7.80;99.90;;;;;;6647956;88;20716;-76
2023/04/08 03:37:01;;;;;;;1999.90;999.90;;;7.80;99.90;;;;;;6645023;88;20197;-77
2023/04/08 03:47:01;;;;;;;1999.90;999.90;;;7.80;99.90;;;;;;6656064;88;20621;-76
2023/04/08 03:57:02;;;;;;;1999.90;999.90;;;7.70;99.90;;;;;;6648777;88;20262;-77
2023/04/08 04:07:02;;;;;;;1999.90;999.90;;;7.80;99.90;;;;;;6643861;88;20283;-78
2023/04/08 04:17:03;;;;;;;1999.90;999.90;;;7.80;99.90;;;;;;6661582;88;20205;-77
2023/04/08 04:27:04;;;;;;;1999.90;999.90;;;7.90;99.90;;;;;;6660276;88;20219;-77
2023/04/08 04:37:05;;;;;;;1999.90;999.90;;;7.90;99.90;;;;;;6651844;88;20740;-77
2023/04/08 04:47:05;;;;;;;1999.90;999.90;;;7.80;99.90;;;;;;6658521;88;20200;-78
2023/04/08 04:57:06;;;;;;;1999.90;999.90;;;7.80;99.90;;;;;;6663391;88;20239;-78
2023/04/08 05:07:06;;;;;;;1999.90;999.90;;;7.70;99.90;;;;;;6643247;88;20833;-77
2023/04/08 05:17:07;;;;;;;1999.90;999.90;;;7.80;99.90;;;;;;6658016;88;20331;-78
2023/04/08 05:27:07;;;;;;;1999.90;999.90;;;7.90;99.90;;;;;;6641362;88;20218;-78
2023/04/08 05:37:08;;;;;;;1999.90;999.90;;;7.90;99.90;;;;;;6673219;88;20193;-77
2023/04/08 05:47:09;;;;;;;1999.90;999.90;;;8.00;99.90;;;;;;6677797;88;20185;-77
2023/04/08 05:57:09;;;;;;;1999.90;999.90;;;8.00;99.90;;;;;;6645917;88;20201;-76
2023/04/08 06:07:10;;;;;;;1999.90;999.90;;;8.00;99.90;;;;;;6640124;88;20205;-76
2023/04/08 06:17:10;;;;;;;1999.90;999.90;;;8.10;99.90;;;;;;6668550;88;20196;-77
2023/04/08 06:27:11;;;;;;;1999.90;999.90;;;8.10;99.90;;;;;;6647090;88;20291;-77
2023/04/08 06:37:12;;;;;;;1999.90;999.90;;;8.20;99.90;;;;;;6657165;88;20308;-77
2023/04/08 06:47:13;;;;;;;1999.90;999.90;;;8.20;99.90;;;;;;6641063;88;20299;-77
2023/04/08 06:57:13;;;;;;;1999.90;999.90;;;8.30;99.90;;;;;;6655681;88;20194;-77
2023/04/08 07:07:14;;;;;;;1999.90;999.90;;;8.50;99.90;;;;;;6655723;88;20235;-78
2023/04/08 07:17:14;;;;;;;1999.90;999.90;;;8.50;99.90;;;;;;6663597;88;20613;-79
2023/04/08 07:27:16;;;;;;;1999.90;999.90;;;8.60;99.90;;;;;;6639272;88;20533;-78
2023/04/08 07:37:17;;;;;;;1999.90;999.90;;;8.70;99.90;;;;;;6660954;88;20345;-78
2023/04/08 07:47:17;;;;;;;1999.90;999.90;;;8.90;99.90;;;;;;6640227;88;20224;-78
2023/04/08 07:57:18;;;;;;;1999.90;999.90;;;9.10;99.90;;;;;;6640034;88;20248;-78
2023/04/08 08:07:18;;;;;;;1999.90;999.90;;;9.50;99.90;;;;;;6650526;88;20239;-78
2023/04/08 08:17:19;;;;;;;1999.90;999.90;;;9.60;99.90;;;;;;6661653;77;20248;-77
2023/04/08 08:27:19;;;;;;;1999.90;999.90;;;9.80;99.90;;;;;;6705032;88;20207;-76
2023/04/08 08:37:22;;;;;;;1999.90;999.90;;;9.80;99.90;;;;;;6703048;88;20376;-75
2023/04/08 08:47:24;;;;;;;1999.90;999.90;;;10.30;99.90;;;;;;6700421;88;20202;-75
2023/04/08 08:57:24;;;;;;;1999.90;999.90;;;10.60;99.90;;;;;;6700148;88;20260;-75
2023/04/08 09:07:26;;;;;;;1999.90;999.90;;;10.70;99.90;;;;;;6700260;88;20216;-75
2023/04/08 09:17:38;;;;;;;1999.90;999.90;;;10.60;99.90;;;;;;6701675;88;20596;-75
2023/04/08 09:27:38;;;;;;;1999.90;999.90;;;10.60;99.90;;;;;;6700932;88;20190;-76
2023/04/08 09:37:39;;;;;;;1999.90;999.90;;;10.50;99.90;;;;;;6696197;88;20224;-75
2023/04/08 09:48:03;;;;;;;1999.90;999.90;;;11.00;99.90;;;;;;6702507;88;20739;-75
2023/04/08 09:58:14;;;;;;;1999.90;999.90;;;11.20;99.90;;;;;;6701716;88;20710;-75
2023/04/08 10:08:15;;;;;;;1999.90;999.90;;;11.20;99.90;;;;;;6696420;88;20261;-75
2023/04/08 10:18:19;;;;;;;1999.90;999.90;;;11.70;99.90;;;;;;6695819;88;20266;-75
2023/04/08 10:28:21;;;;;;;1999.90;999.90;;;11.70;99.90;;;;;;6699013;88;20683;-76
2023/04/08 10:38:22;;;;;;;1999.90;999.90;;;11.50;99.90;;;;;;6698350;88;20219;-76
2023/04/08 10:48:23;;;;;;;1999.90;999.90;;;11.80;99.90;;;;;;6702126;88;20324;-76
2023/04/08 10:58:26;;;;;;;1999.90;999.90;;;12.10;99.90;;;;;;6700710;88;20248;-75
2023/04/08 11:08:28;;;;;;;1999.90;999.90;;;12.00;99.90;;;;;;6705095;88;20317;-76
2023/04/08 11:18:30;;;;;;;1999.90;999.90;;;12.10;99.90;;;;;;6695475;88;20301;-76
2023/04/08 11:28:31;;;;;;;1999.90;999.90;;;12.10;99.90;;;;;;6695461;88;20206;-76
2023/04/08 11:38:32;;;;;;;1999.90;999.90;;;12.80;99.90;;;;;;6695325;88;20304;-76
2023/04/08 11:48:32;;;;;;;1999.90;999.90;;;13.00;99.90;;;;;;6700588;88;20611;-76
2023/04/08 11:58:33;;;;;;;1999.90;999.90;;;12.90;99.90;;;;;;6695209;88;20698;-76
2023/04/08 12:08:33;;;;;;;1999.90;999.90;;;12.80;99.90;;;;;;6707043;88;20504;-77
2023/04/08 12:18:34;;;;;;;1999.90;999.90;;;12.50;99.90;;;;;;6699038;88;20202;-75
2023/04/08 12:28:35;;;;;;;1999.90;999.90;;;12.40;99.90;;;;;;6703257;88;20192;-76
2023/04/08 12:38:36;;;;;;;1999.90;999.90;;;12.10;99.90;;;;;;6692128;88;21054;-75
2023/04/08 12:48:36;;;;;;;1999.90;999.90;;;12.10;99.90;;;;;;6699704;88;20233;-77
2023/04/08 12:58:37;;;;;;;1999.90;999.90;;;12.00;99.90;;;;;;6697656;88;20278;-76
2023/04/08 13:08:37;;;;;;;1999.90;999.90;;;12.00;99.90;;;;;;6698232;88;20221;-75
2023/04/08 13:18:38;;;;;;;1999.90;999.90;;;12.40;99.90;;;;;;6697679;88;20227;-75
2023/04/08 13:28:38;;;;;;;1999.90;999.90;;;12.40;99.90;;;;;;6698978;88;20692;-75
2023/04/08 13:38:39;;;;;;;1999.90;999.90;;;12.60;99.90;;;;;;6698007;88;20205;-75
2023/04/08 13:48:40;;;;;;;1999.90;999.90;;;12.90;99.90;;;;;;6697557;88;20208;-76
2023/04/08 13:58:40;;;;;;;1999.90;999.90;;;13.10;99.90;;;;;;6695178;88;20251;-75
2023/04/08 14:08:41;;;;;;;1999.90;999.90;;;13.30;99.90;;;;;;6700459;88;20213;-76
2023/04/08 14:18:42;;;;;;;1999.90;999.90;;;13.60;99.90;;;;;;6701633;77;20636;-77
2023/04/08 14:28:42;;;;;;;1999.90;999.90;;;13.50;99.90;;;;;;6722201;88;20190;-76
2023/04/08 14:38:43;;;;;;;1999.90;999.90;;;13.30;99.90;;;;;;6712067;88;20251;-77
2023/04/08 14:48:43;;;;;;;1999.90;999.90;;;13.30;99.90;;;;;;6699457;88;20200;-76
2023/04/08 14:58:44;;;;;;;1999.90;999.90;;;13.30;99.90;;;;;;6729755;88;20713;-76
2023/04/08 15:08:44;;;;;;;1999.90;999.90;;;13.50;99.90;;;;;;6732068;88;20682;-77
2023/04/08 15:18:45;;;;;;;1999.90;999.90;;;13.30;99.90;;;;;;6729007;88;20205;-79
2023/04/08 15:28:46;;;;;;;1999.90;999.90;;;13.70;99.90;;;;;;6725367;88;20193;-78
2023/04/08 15:38:46;;;;;;;1999.90;999.90;;;13.60;99.90;;;;;;6719221;88;20208;-78
2023/04/08 15:48:48;;;;;;;1999.90;999.90;;;13.30;99.90;;;;;;6724941;88;20185;-78
2023/04/08 15:58:48;;;;;;;1999.90;999.90;;;13.30;99.90;;;;;;6719347;88;20221;-77
2023/04/08 16:08:49;;;;;;;1999.90;999.90;;;13.10;99.90;;;;;;6706866;88;20764;-78
2023/04/08 16:18:51;;;;;;;1999.90;999.90;;;13.00;99.90;;;;;;6724462;88;20764;-77
2023/04/08 16:28:52;;;;;;;1999.90;999.90;;;12.70;99.90;;;;;;6712639;88;20709;-79
2023/04/08 16:38:53;;;;;;;1999.90;999.90;;;12.70;99.90;;;;;;6713728;88;20265;-77
2023/04/08 16:48:54;;;;;;;1999.90;999.90;;;12.40;99.90;;;;;;6708376;88;20250;-78
2023/04/08 16:58:54;;;;;;;1999.90;999.90;;;12.00;99.90;;;;;;6706405;88;20613;-78
2023/04/08 17:08:55;;;;;;;1999.90;999.90;;;12.00;99.90;;;;;;6713324;88;20531;-77
2023/04/08 17:18:56;;;;;;;1999.90;999.90;;;12.10;99.90;;;;;;6705496;88;20194;-77
2023/04/08 17:28:56;;;;;;;1999.90;999.90;;;11.90;99.90;;;;;;6710945;88;20200;-78
2023/04/08 17:38:57;;;;;;;1999.90;999.90;;;11.60;99.90;;;;;;6709262;88;20189;-77
2023/04/08 17:48:57;;;;;;;1999.90;999.90;;;11.30;99.90;;;;;;6708147;88;20609;-78
2023/04/08 17:58:58;;;;;;;1999.90;999.90;;;11.10;99.90;;;;;;6720654;88;20685;-77
2023/04/08 18:08:58;;;;;;;1999.90;999.90;;;10.80;99.90;;;;;;6723321;88;20196;-75
2023/04/08 18:18:59;;;;;;;1999.90;999.90;;;10.50;99.90;;;;;;6717600;88;20376;-78
2023/04/08 18:28:59;;;;;;;1999.90;999.90;;;10.40;99.90;;;;;;6733099;88;20220;-77
2023/04/08 18:39:01;;;;;;;1999.90;999.90;;;10.20;99.90;;;;;;6743279;88;20237;-78
2023/04/08 18:49:02;;;;;;;1999.90;999.90;;;10.00;99.90;;;;;;6748271;88;20639;-78
2023/04/08 18:59:03;;;;;;;1999.90;999.90;;;9.80;99.90;;;;;;6734753;88;20193;-79
2023/04/08 19:09:03;;;;;;;1999.90;999.90;;;9.60;99.90;;;;;;6716175;88;20186;-76
2023/04/08 19:19:04;;;;;;;1999.90;999.90;;;9.60;99.90;;;;;;6712905;88;20263;-76
2023/04/08 19:29:04;;;;;;;1999.90;999.90;;;9.40;99.90;;;;;;6716592;88;20192;-76
2023/04/08 19:39:05;;;;;;;1999.90;999.90;;;9.10;99.90;;;;;;6715714;88;20200;-78
2023/04/08 19:49:05;;;;;;;1999.90;999.90;;;8.90;99.90;;;;;;6659172;88;20330;-77
2023/04/08 19:59:06;;;;;;;1999.90;999.90;;;8.70;99.90;;;;;;6701358;88;20190;-78
2023/04/08 20:09:07;;;;;;;1999.90;999.90;;;8.60;99.90;;;;;;6702811;88;20267;-77
2023/04/08 20:19:07;;;;;;;1999.90;999.90;;;8.40;99.90;;;;;;6718685;88;20221;-79
2023/04/08 20:29:08;;;;;;;1999.90;999.90;;;8.50;99.90;;;;;;6732824;88;20755;-78
2023/04/08 20:39:09;;;;;;;1999.90;999.90;;;8.60;99.90;;;;;;6717608;88;20213;-78
2023/04/08 20:49:10;;;;;;;1999.90;999.90;;;8.60;99.90;;;;;;6715879;88;20210;-78
2023/04/08 20:59:10;;;;;;;1999.90;999.90;;;8.80;99.90;;;;;;6722601;88;20189;-78
2023/04/08 21:09:13;;;;;;;1999.90;999.90;;;8.80;99.90;;;;;;6722564;88;20210;-78
2023/04/08 21:19:14;;;;;;;1999.90;999.90;;;8.70;99.90;;;;;;6721981;88;20215;-78
2023/04/08 21:29:15;;;;;;;1999.90;999.90;;;8.70;99.90;;;;;;6710046;88;20224;-76
2023/04/08 21:39:15;;;;;;;1999.90;999.90;;;8.60;99.90;;;;;;6712019;88;20254;-77
2023/04/08 21:49:16;;;;;;;1999.90;999.90;;;8.60;99.90;;;;;;6714533;88;20235;-76
2023/04/08 21:59:17;;;;;;;1999.90;999.90;;;8.50;99.90;;;;;;6712168;88;20229;-77
2023/04/08 22:09:18;;;;;;;1999.90;999.90;;;8.30;99.90;;;;;;6719788;88;20322;-78
2023/04/08 22:19:19;;;;;;;1999.90;999.90;;;8.30;99.90;;;;;;6732531;88;20812;-78
2023/04/08 22:29:19;;;;;;;1999.90;999.90;;;8.20;99.90;;;;;;6730240;88;20244;-77
2023/04/08 22:39:20;;;;;;;1999.90;999.90;;;8.30;99.90;;;;;;6733226;88;20233;-75
2023/04/08 22:49:20;;;;;;;1999.90;999.90;;;8.40;99.90;;;;;;6725813;88;20182;-77
2023/04/08 22:59:21;;;;;;;1999.90;999.90;;;8.60;99.90;;;;;;6725145;88;20221;-76
2023/04/08 23:09:23;;;;;;;1999.90;999.90;;;8.40;99.90;;;;;;6734151;88;20227;-76
2023/04/08 23:19:23;;;;;;;1999.90;999.90;;;8.20;99.90;;;;;;6732660;88;20204;-78
2023/04/08 23:29:24;;;;;;;1999.90;999.90;;;8.20;99.90;;;;;;6728119;88;20206;-77
2023/04/08 23:39:25;;;;;;;1999.90;999.90;;;8.10;99.90;;;;;;6724269;88;20789;-78
2023/04/08 23:49:25;;;;;;;1999.90;999.90;;;8.20;99.90;;;;;;6724173;88;20200;-78
2023/04/08 23:59:27;;;;;;;1999.90;999.90;;;8.20;99.90;;;;;;6722350;88;20204;-78
